sensor_id;sensor_type;location;lat;lon;timestamp;P1;durP1;ratioP1;P2;durP2;ratioP2
7669;SDS011;3877;42.562;27.636;2024-03-23T00:54:37;28.40;;;18.73;;
7669;SDS011;3877;42.562;27.636;2024-03-23T00:57:04;28.87;;;19.50;;
7669;SDS011;3877;42.562;27.636;2024-03-23T00:59:30;32.83;;;21.80;;
7669;SDS011;3877;42.562;27.636;2024-03-23T01:01:57;27.43;;;19.53;;
7669;SDS011;3877;42.562;27.636;2024-03-23T01:04:23;36.33;;;23.10;;
7669;SDS011;3877;42.562;27.636;2024-03-23T01:06:50;30.43;;;20.57;;
7669;SDS011;3877;42.562;27.636;2024-03-23T01:09:16;32.53;;;22.57;;
7669;SDS011;3877;42.562;27.636;2024-03-23T01:11:45;32.17;;;22.00;;
7669;SDS011;3877;42.562;27.636;2024-03-23T01:14:11;29.80;;;21.03;;
7669;SDS011;3877;42.562;27.636;2024-03-23T01:16:38;36.93;;;22.20;;
7669;SDS011;3877;42.562;27.636;2024-03-23T01:19:03;33.03;;;22.17;;
7669;SDS011;3877;42.562;27.636;2024-03-23T01:21:31;34.73;;;22.20;;
7669;SDS011;3877;42.562;27.636;2024-03-23T01:23:57;33.10;;;22.87;;
7669;SDS011;3877;42.562;27.636;2024-03-23T01:26:24;32.67;;;21.77;;
7669;SDS011;3877;42.562;27.636;2024-03-23T01:28:51;35.27;;;22.87;;
7669;SDS011;3877;42.562;27.636;2024-03-23T01:31:18;32.03;;;21.93;;
7669;SDS011;3877;42.562;27.636;2024-03-23T01:33:44;35.37;;;23.93;;
7669;SDS011;3877;42.562;27.636;2024-03-23T01:36:11;32.07;;;22.40;;
7669;SDS011;3877;42.562;27.636;2024-03-23T01:38:37;34.67;;;22.80;;
7669;SDS011;3877;42.562;27.636;2024-03-23T01:41:04;35.10;;;23.17;;
7669;SDS011;3877;42.562;27.636;2024-03-23T01:43:30;37.97;;;23.80;;
7669;SDS011;3877;42.562;27.636;2024-03-23T01:45:59;32.30;;;22.33;;
7669;SDS011;3877;42.562;27.636;2024-03-23T01:48:25;36.20;;;24.47;;
7669;SDS011;3877;42.562;27.636;2024-03-23T01:50:51;36.77;;;25.47;;
7669;SDS011;3877;42.562;27.636;2024-03-23T01:53:18;38.00;;;25.17;;
7669;SDS011;3877;42.562;27.636;2024-03-23T01:55:47;36.50;;;24.63;;
7669;SDS011;3877;42.562;27.636;2024-03-23T01:58:13;39.00;;;24.23;;
7669;SDS011;3877;42.562;27.636;2024-03-23T02:00:40;38.23;;;25.00;;
7669;SDS011;3877;42.562;27.636;2024-03-23T02:05:49;40.53;;;26.50;;
7669;SDS011;3877;42.562;27.636;2024-03-23T02:08:15;37.47;;;25.03;;
7669;SDS011;3877;42.562;27.636;2024-03-23T02:10:43;41.47;;;27.17;;
7669;SDS011;3877;42.562;27.636;2024-03-23T02:13:10;35.37;;;22.97;;
7669;SDS011;3877;42.562;27.636;2024-03-23T02:15:40;36.77;;;22.83;;
7669;SDS011;3877;42.562;27.636;2024-03-23T02:18:07;33.27;;;21.90;;
7669;SDS011;3877;42.562;27.636;2024-03-23T02:20:34;34.40;;;24.33;;
7669;SDS011;3877;42.562;27.636;2024-03-23T02:23:01;36.47;;;24.33;;
7669;SDS011;3877;42.562;27.636;2024-03-23T02:25:28;32.70;;;22.00;;
7669;SDS011;3877;42.562;27.636;2024-03-23T02:27:54;33.00;;;22.27;;
7669;SDS011;3877;42.562;27.636;2024-03-23T02:30:21;33.07;;;21.93;;
7669;SDS011;3877;42.562;27.636;2024-03-23T02:32:47;33.57;;;23.30;;
7669;SDS011;3877;42.562;27.636;2024-03-23T02:35:14;33.63;;;23.07;;
7669;SDS011;3877;42.562;27.636;2024-03-23T02:37:40;35.13;;;24.87;;
7669;SDS011;3877;42.562;27.636;2024-03-23T02:40:08;36.80;;;24.70;;
7669;SDS011;3877;42.562;27.636;2024-03-23T02:42:34;36.13;;;23.73;;
7669;SDS011;3877;42.562;27.636;2024-03-23T02:45:02;36.17;;;24.50;;
7669;SDS011;3877;42.562;27.636;2024-03-23T02:47:30;33.20;;;22.30;;
7669;SDS011;3877;42.562;27.636;2024-03-23T02:49:57;30.10;;;21.30;;
7669;SDS011;3877;42.562;27.636;2024-03-23T02:52:23;30.50;;;21.60;;
7669;SDS011;3877;42.562;27.636;2024-03-23T02:54:50;35.73;;;21.53;;
7669;SDS011;3877;42.562;27.636;2024-03-23T02:57:18;33.30;;;22.00;;
7669;SDS011;3877;42.562;27.636;2024-03-23T02:59:46;30.77;;;22.13;;
7669;SDS011;3877;42.562;27.636;2024-03-23T03:02:13;36.13;;;21.00;;
7669;SDS011;3877;42.562;27.636;2024-03-23T03:04:40;34.60;;;20.77;;
7669;SDS011;3877;42.562;27.636;2024-03-23T03:07:08;34.23;;;20.50;;
7669;SDS011;3877;42.562;27.636;2024-03-23T03:09:35;33.43;;;21.30;;
7669;SDS011;3877;42.562;27.636;2024-03-23T03:12:01;34.30;;;21.70;;
7669;SDS011;3877;42.562;27.636;2024-03-23T03:14:30;32.23;;;20.13;;
7669;SDS011;3877;42.562;27.636;2024-03-23T03:16:55;31.90;;;20.80;;
7669;SDS011;3877;42.562;27.636;2024-03-23T03:19:23;31.87;;;20.77;;
7669;SDS011;3877;42.562;27.636;2024-03-23T03:21:49;30.80;;;20.60;;
7669;SDS011;3877;42.562;27.636;2024-03-23T03:24:16;27.17;;;18.83;;
7669;SDS011;3877;42.562;27.636;2024-03-23T03:26:42;28.07;;;19.27;;
7669;SDS011;3877;42.562;27.636;2024-03-23T03:29:09;27.20;;;19.13;;
7669;SDS011;3877;42.562;27.636;2024-03-23T03:31:37;27.90;;;19.23;;
7669;SDS011;3877;42.562;27.636;2024-03-23T03:34:04;31.43;;;19.80;;
7669;SDS011;3877;42.562;27.636;2024-03-23T03:36:30;32.97;;;19.60;;
7669;SDS011;3877;42.562;27.636;2024-03-23T03:38:56;26.87;;;18.97;;
7669;SDS011;3877;42.562;27.636;2024-03-23T03:41:22;27.30;;;17.87;;
7669;SDS011;3877;42.562;27.636;2024-03-23T03:43:49;28.63;;;17.37;;
7669;SDS011;3877;42.562;27.636;2024-03-23T03:46:15;26.60;;;18.60;;
7669;SDS011;3877;42.562;27.636;2024-03-23T03:48:44;25.13;;;18.03;;
7669;SDS011;3877;42.562;27.636;2024-03-23T03:51:10;26.53;;;18.43;;
7669;SDS011;3877;42.562;27.636;2024-03-23T03:53:37;26.40;;;18.50;;
7669;SDS011;3877;42.562;27.636;2024-03-23T03:56:03;26.40;;;17.63;;
7669;SDS011;3877;42.562;27.636;2024-03-23T03:58:30;24.53;;;17.97;;
7669;SDS011;3877;42.562;27.636;2024-03-23T04:00:56;25.07;;;17.70;;
7669;SDS011;3877;42.562;27.636;2024-03-23T04:03:23;25.90;;;18.30;;
7669;SDS011;3877;42.562;27.636;2024-03-23T04:05:53;26.70;;;17.50;;
7669;SDS011;3877;42.562;27.636;2024-03-23T04:08:20;28.43;;;19.10;;
7669;SDS011;3877;42.562;27.636;2024-03-23T04:10:47;28.07;;;18.60;;
7669;SDS011;3877;42.562;27.636;2024-03-23T04:13:14;28.97;;;20.13;;
7669;SDS011;3877;42.562;27.636;2024-03-23T04:15:40;25.27;;;18.87;;
7669;SDS011;3877;42.562;27.636;2024-03-23T04:18:07;25.67;;;18.77;;
7669;SDS011;3877;42.562;27.636;2024-03-23T04:20:33;27.20;;;18.50;;
7669;SDS011;3877;42.562;27.636;2024-03-23T04:23:02;30.03;;;18.87;;
7669;SDS011;3877;42.562;27.636;2024-03-23T04:25:28;26.30;;;18.10;;
7669;SDS011;3877;42.562;27.636;2024-03-23T04:27:55;24.47;;;17.07;;
7669;SDS011;3877;42.562;27.636;2024-03-23T04:30:21;25.43;;;16.90;;
7669;SDS011;3877;42.562;27.636;2024-03-23T04:32:51;24.73;;;15.80;;
7669;SDS011;3877;42.562;27.636;2024-03-23T04:35:16;22.40;;;15.50;;
7669;SDS011;3877;42.562;27.636;2024-03-23T04:37:45;22.83;;;15.60;;
7669;SDS011;3877;42.562;27.636;2024-03-23T04:40:13;22.97;;;15.37;;
7669;SDS011;3877;42.562;27.636;2024-03-23T04:42:40;20.67;;;14.73;;
7669;SDS011;3877;42.562;27.636;2024-03-23T04:45:08;23.37;;;16.53;;
7669;SDS011;3877;42.562;27.636;2024-03-23T04:47:37;21.40;;;14.40;;
7669;SDS011;3877;42.562;27.636;2024-03-23T04:50:04;55.97;;;36.30;;
7669;SDS011;3877;42.562;27.636;2024-03-23T04:52:31;17.20;;;12.30;;
7669;SDS011;3877;42.562;27.636;2024-03-23T04:54:58;81.90;;;45.70;;
7669;SDS011;3877;42.562;27.636;2024-03-23T04:57:27;13.57;;;10.47;;
7669;SDS011;3877;42.562;27.636;2024-03-23T04:59:54;14.17;;;10.77;;
7669;SDS011;3877;42.562;27.636;2024-03-23T05:02:20;12.03;;;9.57;;
7669;SDS011;3877;42.562;27.636;2024-03-23T05:04:47;11.73;;;9.53;;
7669;SDS011;3877;42.562;27.636;2024-03-23T05:07:14;15.60;;;10.60;;
7669;SDS011;3877;42.562;27.636;2024-03-23T05:09:41;14.00;;;11.50;;
7669;SDS011;3877;42.562;27.636;2024-03-23T05:12:07;14.10;;;12.40;;
7669;SDS011;3877;42.562;27.636;2024-03-23T05:14:35;15.93;;;11.33;;
7669;SDS011;3877;42.562;27.636;2024-03-23T05:17:02;15.30;;;10.47;;
7669;SDS011;3877;42.562;27.636;2024-03-23T05:19:30;13.77;;;9.57;;
7669;SDS011;3877;42.562;27.636;2024-03-23T05:22:14;12.80;;;9.77;;
7669;SDS011;3877;42.562;27.636;2024-03-23T05:24:41;14.00;;;10.83;;
7669;SDS011;3877;42.562;27.636;2024-03-23T05:27:07;17.37;;;12.77;;
7669;SDS011;3877;42.562;27.636;2024-03-23T05:29:35;15.57;;;12.53;;
7669;SDS011;3877;42.562;27.636;2024-03-23T05:32:02;15.47;;;12.40;;
7669;SDS011;3877;42.562;27.636;2024-03-23T05:34:29;17.13;;;13.40;;
7669;SDS011;3877;42.562;27.636;2024-03-23T05:36:55;16.80;;;12.80;;
7669;SDS011;3877;42.562;27.636;2024-03-23T05:39:22;17.27;;;12.60;;
7669;SDS011;3877;42.562;27.636;2024-03-23T05:41:47;18.37;;;13.13;;
7669;SDS011;3877;42.562;27.636;2024-03-23T05:44:15;17.97;;;12.23;;
7669;SDS011;3877;42.562;27.636;2024-03-23T05:46:42;15.37;;;10.73;;
7669;SDS011;3877;42.562;27.636;2024-03-23T05:49:13;16.77;;;12.53;;
7669;SDS011;3877;42.562;27.636;2024-03-23T05:51:39;17.53;;;11.37;;
7669;SDS011;3877;42.562;27.636;2024-03-23T05:54:06;16.53;;;12.40;;
7669;SDS011;3877;42.562;27.636;2024-03-23T05:56:32;17.47;;;12.53;;
7669;SDS011;3877;42.562;27.636;2024-03-23T05:58:59;18.67;;;13.23;;
7669;SDS011;3877;42.562;27.636;2024-03-23T06:01:25;20.87;;;14.50;;
7669;SDS011;3877;42.562;27.636;2024-03-23T06:03:55;21.77;;;14.90;;
7669;SDS011;3877;42.562;27.636;2024-03-23T06:06:25;20.80;;;14.23;;
7669;SDS011;3877;42.562;27.636;2024-03-23T06:08:51;19.27;;;14.83;;
7669;SDS011;3877;42.562;27.636;2024-03-23T06:11:18;20.07;;;15.23;;
7669;SDS011;3877;42.562;27.636;2024-03-23T06:13:44;21.20;;;15.23;;
7669;SDS011;3877;42.562;27.636;2024-03-23T06:16:11;21.67;;;14.93;;
7669;SDS011;3877;42.562;27.636;2024-03-23T06:18:37;20.50;;;14.90;;
7669;SDS011;3877;42.562;27.636;2024-03-23T06:21:05;20.57;;;14.30;;
7669;SDS011;3877;42.562;27.636;2024-03-23T06:26:16;22.20;;;14.23;;
7669;SDS011;3877;42.562;27.636;2024-03-23T06:28:42;20.20;;;14.03;;
7669;SDS011;3877;42.562;27.636;2024-03-23T06:31:09;22.43;;;15.00;;
7669;SDS011;3877;42.562;27.636;2024-03-23T06:33:35;22.50;;;14.30;;
7669;SDS011;3877;42.562;27.636;2024-03-23T06:36:03;20.73;;;14.77;;
7669;SDS011;3877;42.562;27.636;2024-03-23T06:38:32;21.07;;;14.47;;
7669;SDS011;3877;42.562;27.636;2024-03-23T06:41:02;19.63;;;14.03;;
7669;SDS011;3877;42.562;27.636;2024-03-23T06:43:28;21.57;;;13.50;;
7669;SDS011;3877;42.562;27.636;2024-03-23T06:45:55;17.70;;;12.90;;
7669;SDS011;3877;42.562;27.636;2024-03-23T06:48:22;19.30;;;13.83;;
7669;SDS011;3877;42.562;27.636;2024-03-23T06:50:49;18.57;;;13.00;;
7669;SDS011;3877;42.562;27.636;2024-03-23T06:53:15;18.97;;;13.70;;
7669;SDS011;3877;42.562;27.636;2024-03-23T06:55:43;20.70;;;13.93;;
7669;SDS011;3877;42.562;27.636;2024-03-23T06:58:15;19.67;;;13.50;;
7669;SDS011;3877;42.562;27.636;2024-03-23T07:00:42;25.63;;;14.33;;
7669;SDS011;3877;42.562;27.636;2024-03-23T07:03:08;18.90;;;12.97;;
7669;SDS011;3877;42.562;27.636;2024-03-23T07:05:35;20.53;;;13.97;;
7669;SDS011;3877;42.562;27.636;2024-03-23T07:08:01;17.83;;;12.20;;
7669;SDS011;3877;42.562;27.636;2024-03-23T07:10:28;20.13;;;13.97;;
7669;SDS011;3877;42.562;27.636;2024-03-23T07:12:55;18.27;;;13.37;;
7669;SDS011;3877;42.562;27.636;2024-03-23T07:15:22;41.00;;;15.93;;
7669;SDS011;3877;42.562;27.636;2024-03-23T07:17:48;22.97;;;15.17;;
7669;SDS011;3877;42.562;27.636;2024-03-23T07:20:15;21.23;;;16.03;;
7669;SDS011;3877;42.562;27.636;2024-03-23T07:22:41;24.93;;;15.60;;
7669;SDS011;3877;42.562;27.636;2024-03-23T07:25:08;22.43;;;16.63;;
7669;SDS011;3877;42.562;27.636;2024-03-23T07:27:34;19.83;;;13.10;;
7669;SDS011;3877;42.562;27.636;2024-03-23T07:30:03;20.07;;;13.67;;
7669;SDS011;3877;42.562;27.636;2024-03-23T07:32:29;19.33;;;14.63;;
7669;SDS011;3877;42.562;27.636;2024-03-23T07:34:56;21.77;;;14.57;;
7669;SDS011;3877;42.562;27.636;2024-03-23T07:37:22;28.33;;;14.33;;
7669;SDS011;3877;42.562;27.636;2024-03-23T07:39:48;18.73;;;13.90;;
7669;SDS011;3877;42.562;27.636;2024-03-23T07:42:15;18.43;;;12.73;;
7669;SDS011;3877;42.562;27.636;2024-03-23T07:44:42;20.57;;;11.80;;
7669;SDS011;3877;42.562;27.636;2024-03-23T07:47:09;21.47;;;12.73;;
7669;SDS011;3877;42.562;27.636;2024-03-23T07:49:36;17.33;;;12.23;;
7669;SDS011;3877;42.562;27.636;2024-03-23T07:52:02;19.87;;;12.87;;
7669;SDS011;3877;42.562;27.636;2024-03-23T07:54:29;16.73;;;12.10;;
7669;SDS011;3877;42.562;27.636;2024-03-23T07:56:55;18.57;;;13.20;;
7669;SDS011;3877;42.562;27.636;2024-03-23T07:59:23;17.53;;;12.73;;
7669;SDS011;3877;42.562;27.636;2024-03-23T08:01:49;34.72;;;20.77;;
7669;SDS011;3877;42.562;27.636;2024-03-23T08:04:17;26.00;;;16.70;;
7669;SDS011;3877;42.562;27.636;2024-03-23T08:06:43;27.57;;;19.60;;
7669;SDS011;3877;42.562;27.636;2024-03-23T08:09:10;23.77;;;18.17;;
7669;SDS011;3877;42.562;27.636;2024-03-23T08:11:36;23.03;;;16.37;;
7669;SDS011;3877;42.562;27.636;2024-03-23T08:14:04;19.10;;;14.70;;
7669;SDS011;3877;42.562;27.636;2024-03-23T08:16:31;17.10;;;12.37;;
7669;SDS011;3877;42.562;27.636;2024-03-23T08:18:59;19.10;;;12.60;;
7669;SDS011;3877;42.562;27.636;2024-03-23T08:21:26;18.30;;;12.27;;
7669;SDS011;3877;42.562;27.636;2024-03-23T08:23:53;15.80;;;12.00;;
7669;SDS011;3877;42.562;27.636;2024-03-23T08:26:19;17.83;;;11.17;;
7669;SDS011;3877;42.562;27.636;2024-03-23T08:28:47;15.02;;;10.77;;
7669;SDS011;3877;42.562;27.636;2024-03-23T08:31:13;15.38;;;11.18;;
7669;SDS011;3877;42.562;27.636;2024-03-23T08:33:41;14.10;;;10.20;;
7669;SDS011;3877;42.562;27.636;2024-03-23T08:36:08;15.60;;;10.40;;
7669;SDS011;3877;42.562;27.636;2024-03-23T08:38:39;16.57;;;11.43;;
7669;SDS011;3877;42.562;27.636;2024-03-23T08:41:05;24.60;;;13.83;;
7669;SDS011;3877;42.562;27.636;2024-03-23T08:43:33;17.95;;;11.93;;
7669;SDS011;3877;42.562;27.636;2024-03-23T08:46:03;21.13;;;13.63;;
7669;SDS011;3877;42.562;27.636;2024-03-23T08:48:30;14.65;;;11.25;;
7669;SDS011;3877;42.562;27.636;2024-03-23T08:50:59;20.33;;;12.02;;
7669;SDS011;3877;42.562;27.636;2024-03-23T08:53:27;13.00;;;10.80;;
7669;SDS011;3877;42.562;27.636;2024-03-23T08:55:55;12.75;;;10.13;;
7669;SDS011;3877;42.562;27.636;2024-03-23T08:58:22;20.48;;;11.30;;
7669;SDS011;3877;42.562;27.636;2024-03-23T09:00:49;18.55;;;11.52;;
7669;SDS011;3877;42.562;27.636;2024-03-23T09:03:16;17.42;;;9.82;;
7669;SDS011;3877;42.562;27.636;2024-03-23T09:05:42;13.60;;;9.45;;
7669;SDS011;3877;42.562;27.636;2024-03-23T09:08:09;12.40;;;9.40;;
7669;SDS011;3877;42.562;27.636;2024-03-23T09:10:37;11.48;;;8.90;;
7669;SDS011;3877;42.562;27.636;2024-03-23T09:13:06;10.52;;;8.00;;
7669;SDS011;3877;42.562;27.636;2024-03-23T09:15:32;13.00;;;9.40;;
7669;SDS011;3877;42.562;27.636;2024-03-23T09:18:00;10.65;;;7.38;;
7669;SDS011;3877;42.562;27.636;2024-03-23T09:20:26;15.02;;;9.27;;
7669;SDS011;3877;42.562;27.636;2024-03-23T09:22:53;11.77;;;7.55;;
7669;SDS011;3877;42.562;27.636;2024-03-23T09:25:19;13.85;;;8.15;;
7669;SDS011;3877;42.562;27.636;2024-03-23T09:27:46;19.67;;;8.00;;
7669;SDS011;3877;42.562;27.636;2024-03-23T09:30:14;10.35;;;7.60;;
7669;SDS011;3877;42.562;27.636;2024-03-23T09:32:41;10.65;;;7.13;;
7669;SDS011;3877;42.562;27.636;2024-03-23T09:35:08;13.20;;;7.70;;
7669;SDS011;3877;42.562;27.636;2024-03-23T09:37:35;12.23;;;9.35;;
7669;SDS011;3877;42.562;27.636;2024-03-23T09:40:01;10.40;;;8.27;;
7669;SDS011;3877;42.562;27.636;2024-03-23T09:42:28;11.63;;;8.87;;
7669;SDS011;3877;42.562;27.636;2024-03-23T09:44:54;12.48;;;9.63;;
7669;SDS011;3877;42.562;27.636;2024-03-23T09:47:24;12.82;;;9.60;;
7669;SDS011;3877;42.562;27.636;2024-03-23T09:49:50;12.30;;;9.70;;
7669;SDS011;3877;42.562;27.636;2024-03-23T09:52:18;15.88;;;9.95;;
7669;SDS011;3877;42.562;27.636;2024-03-23T09:54:44;11.00;;;8.98;;
7669;SDS011;3877;42.562;27.636;2024-03-23T09:57:12;17.50;;;9.30;;
7669;SDS011;3877;42.562;27.636;2024-03-23T09:59:37;14.90;;;9.15;;
7669;SDS011;3877;42.562;27.636;2024-03-23T10:02:05;11.38;;;8.85;;
7669;SDS011;3877;42.562;27.636;2024-03-23T10:04:40;14.15;;;9.43;;
7669;SDS011;3877;42.562;27.636;2024-03-23T10:07:10;14.00;;;8.75;;
7669;SDS011;3877;42.562;27.636;2024-03-23T10:09:36;10.52;;;8.30;;
7669;SDS011;3877;42.562;27.636;2024-03-23T10:12:07;14.48;;;8.88;;
7669;SDS011;3877;42.562;27.636;2024-03-23T10:14:33;10.13;;;8.68;;
7669;SDS011;3877;42.562;27.636;2024-03-23T10:17:11;10.40;;;8.10;;
7669;SDS011;3877;42.562;27.636;2024-03-23T10:19:39;13.73;;;7.90;;
7669;SDS011;3877;42.562;27.636;2024-03-23T10:22:08;10.63;;;8.65;;
7669;SDS011;3877;42.562;27.636;2024-03-23T10:24:34;11.45;;;7.90;;
7669;SDS011;3877;42.562;27.636;2024-03-23T10:27:01;19.95;;;9.00;;
7669;SDS011;3877;42.562;27.636;2024-03-23T10:29:27;33.30;;;22.55;;
7669;SDS011;3877;42.562;27.636;2024-03-23T10:31:55;15.55;;;10.55;;
7669;SDS011;3877;42.562;27.636;2024-03-23T10:34:24;14.23;;;9.15;;
7669;SDS011;3877;42.562;27.636;2024-03-23T10:36:54;17.13;;;9.68;;
7669;SDS011;3877;42.562;27.636;2024-03-23T10:39:20;16.17;;;10.98;;
7669;SDS011;3877;42.562;27.636;2024-03-23T10:41:48;17.13;;;10.60;;
7669;SDS011;3877;42.562;27.636;2024-03-23T10:44:15;20.63;;;10.68;;
7669;SDS011;3877;42.562;27.636;2024-03-23T10:46:44;20.52;;;9.48;;
7669;SDS011;3877;42.562;27.636;2024-03-23T10:49:10;14.70;;;8.55;;
7669;SDS011;3877;42.562;27.636;2024-03-23T10:51:37;14.82;;;8.75;;
7669;SDS011;3877;42.562;27.636;2024-03-23T10:54:05;14.52;;;9.38;;
7669;SDS011;3877;42.562;27.636;2024-03-23T10:56:38;10.07;;;7.35;;
7669;SDS011;3877;42.562;27.636;2024-03-23T10:59:05;13.32;;;8.32;;
7669;SDS011;3877;42.562;27.636;2024-03-23T11:01:34;11.50;;;6.93;;
7669;SDS011;3877;42.562;27.636;2024-03-23T11:04:00;11.68;;;8.45;;
7669;SDS011;3877;42.562;27.636;2024-03-23T11:06:34;14.05;;;7.97;;
7669;SDS011;3877;42.562;27.636;2024-03-23T11:09:00;11.52;;;7.72;;
7669;SDS011;3877;42.562;27.636;2024-03-23T11:11:28;12.38;;;8.60;;
7669;SDS011;3877;42.562;27.636;2024-03-23T11:13:57;7.97;;;6.63;;
7669;SDS011;3877;42.562;27.636;2024-03-23T11:16:24;7.20;;;5.75;;
7669;SDS011;3877;42.562;27.636;2024-03-23T11:18:53;10.82;;;7.40;;
7669;SDS011;3877;42.562;27.636;2024-03-23T11:24:13;18.38;;;8.45;;
7669;SDS011;3877;42.562;27.636;2024-03-23T11:26:42;13.10;;;9.50;;
7669;SDS011;3877;42.562;27.636;2024-03-23T11:29:11;22.38;;;10.55;;
7669;SDS011;3877;42.562;27.636;2024-03-23T11:31:38;17.42;;;9.98;;
7669;SDS011;3877;42.562;27.636;2024-03-23T11:34:04;13.80;;;9.65;;
7669;SDS011;3877;42.562;27.636;2024-03-23T11:36:31;15.90;;;9.90;;
7669;SDS011;3877;42.562;27.636;2024-03-23T11:38:57;15.77;;;10.03;;
7669;SDS011;3877;42.562;27.636;2024-03-23T11:41:24;17.25;;;11.60;;
7669;SDS011;3877;42.562;27.636;2024-03-23T11:43:52;14.27;;;10.43;;
7669;SDS011;3877;42.562;27.636;2024-03-23T11:46:22;14.43;;;8.23;;
7669;SDS011;3877;42.562;27.636;2024-03-23T11:48:49;10.03;;;7.63;;
7669;SDS011;3877;42.562;27.636;2024-03-23T11:51:16;12.63;;;8.33;;
7669;SDS011;3877;42.562;27.636;2024-03-23T11:53:42;9.13;;;7.60;;
7669;SDS011;3877;42.562;27.636;2024-03-23T11:56:09;10.55;;;6.18;;
7669;SDS011;3877;42.562;27.636;2024-03-23T11:58:35;7.63;;;5.47;;
7669;SDS011;3877;42.562;27.636;2024-03-23T12:01:04;7.40;;;6.27;;
7669;SDS011;3877;42.562;27.636;2024-03-23T12:03:30;7.43;;;5.87;;
7669;SDS011;3877;42.562;27.636;2024-03-23T12:06:00;5.93;;;5.10;;
7669;SDS011;3877;42.562;27.636;2024-03-23T12:08:29;8.90;;;5.73;;
7669;SDS011;3877;42.562;27.636;2024-03-23T12:11:04;8.80;;;5.60;;
7669;SDS011;3877;42.562;27.636;2024-03-23T12:13:33;6.40;;;4.83;;
7669;SDS011;3877;42.562;27.636;2024-03-23T12:16:10;7.23;;;4.93;;
7669;SDS011;3877;42.562;27.636;2024-03-23T12:18:37;5.40;;;4.83;;
7669;SDS011;3877;42.562;27.636;2024-03-23T12:21:05;6.07;;;4.57;;
7669;SDS011;3877;42.562;27.636;2024-03-23T12:23:30;6.83;;;5.23;;
7669;SDS011;3877;42.562;27.636;2024-03-23T12:25:57;7.73;;;5.10;;
7669;SDS011;3877;42.562;27.636;2024-03-23T12:28:23;9.93;;;5.60;;
7669;SDS011;3877;42.562;27.636;2024-03-23T12:30:51;10.60;;;6.28;;
7669;SDS011;3877;42.562;27.636;2024-03-23T12:33:19;8.40;;;6.50;;
7669;SDS011;3877;42.562;27.636;2024-03-23T12:35:46;9.70;;;6.70;;
7669;SDS011;3877;42.562;27.636;2024-03-23T12:38:12;8.73;;;5.63;;
7669;SDS011;3877;42.562;27.636;2024-03-23T12:40:39;8.03;;;6.50;;
7669;SDS011;3877;42.562;27.636;2024-03-23T12:43:06;10.88;;;6.72;;
7669;SDS011;3877;42.562;27.636;2024-03-23T12:45:33;7.85;;;6.45;;
7669;SDS011;3877;42.562;27.636;2024-03-23T12:47:59;8.57;;;5.60;;
7669;SDS011;3877;42.562;27.636;2024-03-23T12:50:28;16.57;;;6.17;;
7669;SDS011;3877;42.562;27.636;2024-03-23T12:52:54;7.53;;;5.00;;
7669;SDS011;3877;42.562;27.636;2024-03-23T12:55:21;5.68;;;4.95;;
7669;SDS011;3877;42.562;27.636;2024-03-23T12:57:47;9.30;;;5.37;;
7669;SDS011;3877;42.562;27.636;2024-03-23T13:00:14;6.13;;;4.63;;
7669;SDS011;3877;42.562;27.636;2024-03-23T13:02:42;6.80;;;5.28;;
7669;SDS011;3877;42.562;27.636;2024-03-23T13:05:09;7.30;;;4.83;;
7669;SDS011;3877;42.562;27.636;2024-03-23T13:07:36;6.55;;;4.43;;
7669;SDS011;3877;42.562;27.636;2024-03-23T13:10:04;7.03;;;5.05;;
7669;SDS011;3877;42.562;27.636;2024-03-23T13:12:30;10.98;;;5.28;;
7669;SDS011;3877;42.562;27.636;2024-03-23T13:14:58;7.68;;;5.35;;
7669;SDS011;3877;42.562;27.636;2024-03-23T13:17:24;7.03;;;5.60;;
7669;SDS011;3877;42.562;27.636;2024-03-23T13:19:52;7.70;;;4.70;;
7669;SDS011;3877;42.562;27.636;2024-03-23T13:22:18;10.30;;;5.38;;
7669;SDS011;3877;42.562;27.636;2024-03-23T13:24:46;7.50;;;5.13;;
7669;SDS011;3877;42.562;27.636;2024-03-23T13:27:12;7.65;;;5.43;;
7669;SDS011;3877;42.562;27.636;2024-03-23T13:29:39;9.52;;;5.25;;
7669;SDS011;3877;42.562;27.636;2024-03-23T13:32:05;10.00;;;5.80;;
7669;SDS011;3877;42.562;27.636;2024-03-23T13:34:32;9.75;;;6.28;;
7669;SDS011;3877;42.562;27.636;2024-03-23T13:37:00;6.75;;;5.38;;
7669;SDS011;3877;42.562;27.636;2024-03-23T13:39:27;9.73;;;5.47;;
7669;SDS011;3877;42.562;27.636;2024-03-23T13:41:55;8.45;;;5.72;;
7669;SDS011;3877;42.562;27.636;2024-03-23T13:44:22;8.90;;;5.77;;
7669;SDS011;3877;42.562;27.636;2024-03-23T13:46:48;11.70;;;7.10;;
7669;SDS011;3877;42.562;27.636;2024-03-23T13:49:24;7.00;;;6.30;;
7669;SDS011;3877;42.562;27.636;2024-03-23T13:51:50;6.43;;;5.70;;
7669;SDS011;3877;42.562;27.636;2024-03-23T13:54:17;7.13;;;5.32;;
7669;SDS011;3877;42.562;27.636;2024-03-23T13:56:43;9.20;;;5.53;;
7669;SDS011;3877;42.562;27.636;2024-03-23T13:59:11;9.50;;;5.63;;
7669;SDS011;3877;42.562;27.636;2024-03-23T14:01:37;6.15;;;5.15;;
7669;SDS011;3877;42.562;27.636;2024-03-23T14:04:04;9.27;;;4.82;;
7669;SDS011;3877;42.562;27.636;2024-03-23T14:06:30;7.70;;;5.47;;
7669;SDS011;3877;42.562;27.636;2024-03-23T14:08:58;8.17;;;5.10;;
7669;SDS011;3877;42.562;27.636;2024-03-23T14:11:24;6.60;;;5.50;;
7669;SDS011;3877;42.562;27.636;2024-03-23T14:13:52;10.30;;;5.38;;
7669;SDS011;3877;42.562;27.636;2024-03-23T14:16:20;9.15;;;5.57;;
7669;SDS011;3877;42.562;27.636;2024-03-23T14:18:47;9.00;;;5.65;;
7669;SDS011;3877;42.562;27.636;2024-03-23T14:21:13;11.67;;;5.93;;
7669;SDS011;3877;42.562;27.636;2024-03-23T14:23:40;7.53;;;5.07;;
7669;SDS011;3877;42.562;27.636;2024-03-23T14:26:06;7.18;;;5.20;;
7669;SDS011;3877;42.562;27.636;2024-03-23T14:28:33;11.27;;;5.60;;
7669;SDS011;3877;42.562;27.636;2024-03-23T14:31:00;8.70;;;6.40;;
7669;SDS011;3877;42.562;27.636;2024-03-23T14:33:30;7.65;;;5.57;;
7669;SDS011;3877;42.562;27.636;2024-03-23T14:35:57;7.57;;;5.53;;
7669;SDS011;3877;42.562;27.636;2024-03-23T14:38:26;8.03;;;5.60;;
7669;SDS011;3877;42.562;27.636;2024-03-23T14:40:52;9.35;;;5.55;;
7669;SDS011;3877;42.562;27.636;2024-03-23T14:43:19;11.57;;;6.07;;
7669;SDS011;3877;42.562;27.636;2024-03-23T14:46:04;8.83;;;5.17;;
7669;SDS011;3877;42.562;27.636;2024-03-23T14:48:34;11.00;;;5.70;;
7669;SDS011;3877;42.562;27.636;2024-03-23T14:51:00;9.18;;;5.32;;
7669;SDS011;3877;42.562;27.636;2024-03-23T14:53:30;8.32;;;5.90;;
7669;SDS011;3877;42.562;27.636;2024-03-23T14:55:58;7.30;;;5.50;;
7669;SDS011;3877;42.562;27.636;2024-03-23T14:58:26;11.97;;;6.03;;
7669;SDS011;3877;42.562;27.636;2024-03-23T15:00:52;9.43;;;6.28;;
7669;SDS011;3877;42.562;27.636;2024-03-23T15:03:20;9.50;;;6.55;;
7669;SDS011;3877;42.562;27.636;2024-03-23T15:05:54;9.50;;;5.75;;
7669;SDS011;3877;42.562;27.636;2024-03-23T15:08:21;9.07;;;6.23;;
7669;SDS011;3877;42.562;27.636;2024-03-23T15:10:48;10.93;;;6.47;;
7669;SDS011;3877;42.562;27.636;2024-03-23T15:13:15;9.60;;;6.30;;
7669;SDS011;3877;42.562;27.636;2024-03-23T15:15:43;9.00;;;6.80;;
7669;SDS011;3877;42.562;27.636;2024-03-23T15:18:11;11.73;;;6.88;;
7669;SDS011;3877;42.562;27.636;2024-03-23T15:20:38;11.75;;;6.95;;
7669;SDS011;3877;42.562;27.636;2024-03-23T15:23:07;9.55;;;6.13;;
7669;SDS011;3877;42.562;27.636;2024-03-23T15:25:33;11.77;;;6.90;;
7669;SDS011;3877;42.562;27.636;2024-03-23T15:28:00;12.07;;;6.28;;
7669;SDS011;3877;42.562;27.636;2024-03-23T15:30:27;11.07;;;6.13;;
7669;SDS011;3877;42.562;27.636;2024-03-23T15:32:55;9.82;;;7.13;;
7669;SDS011;3877;42.562;27.636;2024-03-23T15:35:20;10.13;;;5.72;;
7669;SDS011;3877;42.562;27.636;2024-03-23T15:37:49;8.55;;;6.13;;
7669;SDS011;3877;42.562;27.636;2024-03-23T15:40:16;10.37;;;6.30;;
7669;SDS011;3877;42.562;27.636;2024-03-23T15:42:43;10.57;;;6.20;;
7669;SDS011;3877;42.562;27.636;2024-03-23T15:45:09;10.93;;;6.18;;